Other Surface Observations
Issued by NWS Missoula, MT

Home | Current Version | Previous Version | Text Only | Print | Product List | Glossary On
Versions: 1 2 3 4 5 6 7 8 9 10 11 12 13 14 15 16 17 18 19 20 21 22 23 24 25 26 27 28 29 30 31 32 33 34 35 36 37 38 39 40 41 42 43 44 45 46 47 48 49 50
000
SXUS55 KMSO 170413
OSOMSO
MONTANA AWOS SUMMARY
NATIONAL WEATHER SERVICE MISSOULA MT
913 PM MST MON JAN 16 2017

Montana AWOS Reports

SCOBEY      |K9S2 170355Z AUTO 00000KT 25SM M12/M19 A2995 RMK AO1 T11211193
LAUREL      |K6S8 170355Z AUTO 20012KT 40SM M09/M16 A3001 RMK AO1 T10881155
PLAINS      |KS34 170355Z AUTO 00000KT 10SM M17/M22 A3025 RMK AO1 T11711216
EKALAKA     |K97M 170355Z AUTO 13004KT 40SM M06/M13 A3001 RMK AO1 T10551132




USA.gov is the U.S. government's official web portal to all federal, state and local government web resources and services.